sensor_id;sensor_type;location;lat;lon;timestamp;P1;durP1;ratioP1;P2;durP2;ratioP2
19207;SDS011;9737;59.466;18.036;2022-10-03T00:00:16;39.40;;;19.23;;
19207;SDS011;9737;59.466;18.036;2022-10-03T00:02:52;34.67;;;18.05;;
19207;SDS011;9737;59.466;18.036;2022-10-03T00:08:41;35.08;;;17.20;;
19207;SDS011;9737;59.466;18.036;2022-10-03T00:11:27;38.28;;;17.77;;
19207;SDS011;9737;59.466;18.036;2022-10-03T00:14:02;32.33;;;17.02;;
19207;SDS011;9737;59.466;18.036;2022-10-03T00:16:42;43.58;;;17.08;;
19207;SDS011;9737;59.466;18.036;2022-10-03T00:19:19;40.78;;;19.10;;
19207;SDS011;9737;59.466;18.036;2022-10-03T00:22:02;40.08;;;19.50;;
19207;SDS011;9737;59.466;18.036;2022-10-03T00:24:48;37.22;;;18.25;;
19207;SDS011;9737;59.466;18.036;2022-10-03T00:27:28;39.60;;;19.20;;
19207;SDS011;9737;59.466;18.036;2022-10-03T00:30:13;33.45;;;17.10;;
19207;SDS011;9737;59.466;18.036;2022-10-03T00:32:45;41.20;;;18.05;;
19207;SDS011;9737;59.466;18.036;2022-10-03T00:35:32;43.80;;;19.23;;
19207;SDS011;9737;59.466;18.036;2022-10-03T00:38:17;41.25;;;18.80;;
19207;SDS011;9737;59.466;18.036;2022-10-03T00:41:19;40.92;;;18.55;;
19207;SDS011;9737;59.466;18.036;2022-10-03T00:44:05;43.55;;;18.13;;
19207;SDS011;9737;59.466;18.036;2022-10-03T00:47:03;42.13;;;18.38;;
19207;SDS011;9737;59.466;18.036;2022-10-03T00:49:55;44.33;;;18.23;;
19207;SDS011;9737;59.466;18.036;2022-10-03T00:52:44;53.42;;;20.20;;
19207;SDS011;9737;59.466;18.036;2022-10-03T00:55:28;54.20;;;20.77;;
19207;SDS011;9737;59.466;18.036;2022-10-03T00:58:21;49.00;;;20.05;;
19207;SDS011;9737;59.466;18.036;2022-10-03T01:01:05;42.53;;;18.98;;
19207;SDS011;9737;59.466;18.036;2022-10-03T01:03:51;62.05;;;21.80;;
19207;SDS011;9737;59.466;18.036;2022-10-03T01:06:27;54.78;;;19.38;;
19207;SDS011;9737;59.466;18.036;2022-10-03T01:09:10;59.67;;;20.80;;
19207;SDS011;9737;59.466;18.036;2022-10-03T01:11:53;63.55;;;21.60;;
19207;SDS011;9737;59.466;18.036;2022-10-03T01:14:36;51.60;;;21.27;;
19207;SDS011;9737;59.466;18.036;2022-10-03T01:17:25;65.70;;;21.65;;
19207;SDS011;9737;59.466;18.036;2022-10-03T01:20:09;44.95;;;19.88;;
19207;SDS011;9737;59.466;18.036;2022-10-03T01:22:57;48.17;;;19.85;;
19207;SDS011;9737;59.466;18.036;2022-10-03T01:25:39;45.97;;;19.73;;
19207;SDS011;9737;59.466;18.036;2022-10-03T01:28:25;46.85;;;19.70;;
19207;SDS011;9737;59.466;18.036;2022-10-03T01:31:22;51.10;;;19.85;;
19207;SDS011;9737;59.466;18.036;2022-10-03T01:33:58;46.15;;;19.65;;
19207;SDS011;9737;59.466;18.036;2022-10-03T01:36:33;49.05;;;20.35;;
19207;SDS011;9737;59.466;18.036;2022-10-03T01:39:12;49.40;;;20.63;;
19207;SDS011;9737;59.466;18.036;2022-10-03T01:41:49;51.30;;;20.70;;
19207;SDS011;9737;59.466;18.036;2022-10-03T01:44:27;56.17;;;20.75;;
19207;SDS011;9737;59.466;18.036;2022-10-03T01:47:06;64.88;;;21.30;;
19207;SDS011;9737;59.466;18.036;2022-10-03T01:49:45;71.45;;;21.15;;
19207;SDS011;9737;59.466;18.036;2022-10-03T01:52:22;46.95;;;18.13;;
19207;SDS011;9737;59.466;18.036;2022-10-03T01:55:01;51.75;;;19.38;;
19207;SDS011;9737;59.466;18.036;2022-10-03T01:57:36;40.28;;;18.27;;
19207;SDS011;9737;59.466;18.036;2022-10-03T02:00:12;55.45;;;19.88;;
19207;SDS011;9737;59.466;18.036;2022-10-03T02:02:44;62.97;;;19.63;;
19207;SDS011;9737;59.466;18.036;2022-10-03T02:05:21;64.97;;;19.73;;
19207;SDS011;9737;59.466;18.036;2022-10-03T02:08:02;109.93;;;22.00;;
19207;SDS011;9737;59.466;18.036;2022-10-03T02:10:37;155.95;;;21.25;;
19207;SDS011;9737;59.466;18.036;2022-10-03T02:13:11;181.27;;;20.52;;
19207;SDS011;9737;59.466;18.036;2022-10-03T02:15:48;151.10;;;20.15;;
19207;SDS011;9737;59.466;18.036;2022-10-03T02:18:27;29.27;;;14.05;;
19207;SDS011;9737;59.466;18.036;2022-10-03T02:21:07;131.10;;;18.17;;
19207;SDS011;9737;59.466;18.036;2022-10-03T02:23:41;102.60;;;16.88;;
19207;SDS011;9737;59.466;18.036;2022-10-03T02:26:19;63.53;;;15.75;;
19207;SDS011;9737;59.466;18.036;2022-10-03T02:29:09;110.85;;;17.77;;
19207;SDS011;9737;59.466;18.036;2022-10-03T02:32:07;100.07;;;16.67;;
19207;SDS011;9737;59.466;18.036;2022-10-03T02:34:58;77.82;;;17.70;;
19207;SDS011;9737;59.466;18.036;2022-10-03T02:37:59;78.70;;;16.30;;
19207;SDS011;9737;59.466;18.036;2022-10-03T02:40:43;63.30;;;16.20;;
19207;SDS011;9737;59.466;18.036;2022-10-03T02:43:28;55.83;;;15.68;;
19207;SDS011;9737;59.466;18.036;2022-10-03T02:46:25;32.33;;;12.90;;
19207;SDS011;9737;59.466;18.036;2022-10-03T02:58:54;50.78;;;14.65;;
19207;SDS011;9737;59.466;18.036;2022-10-03T03:04:50;104.28;;;15.35;;
19207;SDS011;9737;59.466;18.036;2022-10-03T03:07:51;196.93;;;17.05;;
19207;SDS011;9737;59.466;18.036;2022-10-03T03:16:41;127.00;;;15.60;;
19207;SDS011;9737;59.466;18.036;2022-10-03T03:19:33;182.40;;;17.52;;
19207;SDS011;9737;59.466;18.036;2022-10-03T03:22:13;158.95;;;17.50;;
19207;SDS011;9737;59.466;18.036;2022-10-03T03:25:07;207.63;;;17.63;;
19207;SDS011;9737;59.466;18.036;2022-10-03T03:27:50;115.55;;;13.93;;
19207;SDS011;9737;59.466;18.036;2022-10-03T03:30:30;107.32;;;13.02;;
19207;SDS011;9737;59.466;18.036;2022-10-03T03:33:09;140.40;;;15.13;;
19207;SDS011;9737;59.466;18.036;2022-10-03T03:35:51;83.60;;;12.75;;
19207;SDS011;9737;59.466;18.036;2022-10-03T03:38:30;112.95;;;13.05;;
19207;SDS011;9737;59.466;18.036;2022-10-03T03:41:19;107.47;;;13.10;;
19207;SDS011;9737;59.466;18.036;2022-10-03T03:43:58;60.80;;;11.32;;
19207;SDS011;9737;59.466;18.036;2022-10-03T03:46:44;73.10;;;11.77;;
19207;SDS011;9737;59.466;18.036;2022-10-03T03:49:36;105.28;;;12.50;;
19207;SDS011;9737;59.466;18.036;2022-10-03T03:52:18;77.55;;;12.15;;
19207;SDS011;9737;59.466;18.036;2022-10-03T03:55:04;30.25;;;10.10;;
19207;SDS011;9737;59.466;18.036;2022-10-03T03:57:58;18.73;;;9.77;;
19207;SDS011;9737;59.466;18.036;2022-10-03T04:00:39;32.58;;;9.90;;
19207;SDS011;9737;59.466;18.036;2022-10-03T04:03:30;40.15;;;10.63;;
19207;SDS011;9737;59.466;18.036;2022-10-03T04:06:14;35.63;;;10.70;;
19207;SDS011;9737;59.466;18.036;2022-10-03T04:09:02;42.53;;;11.07;;
19207;SDS011;9737;59.466;18.036;2022-10-03T04:11:47;22.75;;;9.63;;
19207;SDS011;9737;59.466;18.036;2022-10-03T04:17:28;22.40;;;10.02;;
19207;SDS011;9737;59.466;18.036;2022-10-03T04:20:30;14.25;;;9.30;;
19207;SDS011;9737;59.466;18.036;2022-10-03T04:23:18;17.65;;;9.43;;
19207;SDS011;9737;59.466;18.036;2022-10-03T04:31:57;18.00;;;9.13;;
19207;SDS011;9737;59.466;18.036;2022-10-03T04:34:38;21.05;;;9.35;;
19207;SDS011;9737;59.466;18.036;2022-10-03T04:37:19;16.83;;;9.18;;
19207;SDS011;9737;59.466;18.036;2022-10-03T04:39:53;17.83;;;9.50;;
19207;SDS011;9737;59.466;18.036;2022-10-03T04:42:36;15.02;;;9.50;;
19207;SDS011;9737;59.466;18.036;2022-10-03T04:45:18;16.33;;;9.57;;
19207;SDS011;9737;59.466;18.036;2022-10-03T04:48:07;16.85;;;9.45;;
19207;SDS011;9737;59.466;18.036;2022-10-03T04:50:43;27.55;;;10.45;;
19207;SDS011;9737;59.466;18.036;2022-10-03T04:53:25;31.20;;;10.50;;
19207;SDS011;9737;59.466;18.036;2022-10-03T04:56:19;25.17;;;9.95;;
19207;SDS011;9737;59.466;18.036;2022-10-03T04:58:58;38.30;;;11.05;;
19207;SDS011;9737;59.466;18.036;2022-10-03T05:01:32;15.82;;;9.73;;
19207;SDS011;9737;59.466;18.036;2022-10-03T05:04:17;24.52;;;10.73;;
19207;SDS011;9737;59.466;18.036;2022-10-03T05:06:55;16.20;;;8.68;;
19207;SDS011;9737;59.466;18.036;2022-10-03T05:09:32;23.92;;;10.00;;
19207;SDS011;9737;59.466;18.036;2022-10-03T05:12:09;17.83;;;9.63;;
19207;SDS011;9737;59.466;18.036;2022-10-03T05:14:53;51.70;;;11.73;;
19207;SDS011;9737;59.466;18.036;2022-10-03T05:17:29;22.77;;;10.85;;
19207;SDS011;9737;59.466;18.036;2022-10-03T05:20:16;19.65;;;10.63;;
19207;SDS011;9737;59.466;18.036;2022-10-03T05:22:53;14.77;;;9.82;;
19207;SDS011;9737;59.466;18.036;2022-10-03T05:25:32;21.88;;;10.13;;
19207;SDS011;9737;59.466;18.036;2022-10-03T05:28:16;14.02;;;9.88;;
19207;SDS011;9737;59.466;18.036;2022-10-03T05:30:53;13.93;;;9.15;;
19207;SDS011;9737;59.466;18.036;2022-10-03T05:33:32;16.30;;;10.55;;
19207;SDS011;9737;59.466;18.036;2022-10-03T05:36:12;14.70;;;9.07;;
19207;SDS011;9737;59.466;18.036;2022-10-03T05:41:53;15.38;;;9.80;;
19207;SDS011;9737;59.466;18.036;2022-10-03T05:44:47;17.02;;;10.35;;
19207;SDS011;9737;59.466;18.036;2022-10-03T05:47:26;16.77;;;10.40;;
19207;SDS011;9737;59.466;18.036;2022-10-03T05:50:22;15.93;;;10.57;;
19207;SDS011;9737;59.466;18.036;2022-10-03T05:53:07;17.90;;;10.60;;
19207;SDS011;9737;59.466;18.036;2022-10-03T05:55:52;18.50;;;10.10;;
19207;SDS011;9737;59.466;18.036;2022-10-03T05:58:30;16.08;;;10.43;;
19207;SDS011;9737;59.466;18.036;2022-10-03T06:01:17;15.63;;;10.27;;
19207;SDS011;9737;59.466;18.036;2022-10-03T06:04:04;16.92;;;10.77;;
19207;SDS011;9737;59.466;18.036;2022-10-03T06:06:50;18.50;;;11.68;;
19207;SDS011;9737;59.466;18.036;2022-10-03T06:09:58;16.67;;;11.65;;
19207;SDS011;9737;59.466;18.036;2022-10-03T06:12:46;19.35;;;12.02;;
19207;SDS011;9737;59.466;18.036;2022-10-03T06:15:30;21.27;;;11.48;;
19207;SDS011;9737;59.466;18.036;2022-10-03T06:18:32;17.88;;;12.05;;
19207;SDS011;9737;59.466;18.036;2022-10-03T06:31:18;19.77;;;11.60;;
19207;SDS011;9737;59.466;18.036;2022-10-03T06:37:46;20.83;;;11.13;;
19207;SDS011;9737;59.466;18.036;2022-10-03T06:40:42;15.38;;;9.65;;
19207;SDS011;9737;59.466;18.036;2022-10-03T06:43:35;13.10;;;9.65;;
19207;SDS011;9737;59.466;18.036;2022-10-03T06:46:28;15.45;;;10.18;;
19207;SDS011;9737;59.466;18.036;2022-10-03T06:52:22;15.98;;;9.90;;
19207;SDS011;9737;59.466;18.036;2022-10-03T06:58:26;15.82;;;10.45;;
19207;SDS011;9737;59.466;18.036;2022-10-03T07:04:21;14.55;;;10.35;;
19207;SDS011;9737;59.466;18.036;2022-10-03T07:07:28;19.13;;;12.25;;
19207;SDS011;9737;59.466;18.036;2022-10-03T07:10:37;16.83;;;11.63;;
19207;SDS011;9737;59.466;18.036;2022-10-03T07:13:23;22.80;;;12.00;;
19207;SDS011;9737;59.466;18.036;2022-10-03T07:16:17;17.08;;;11.30;;
19207;SDS011;9737;59.466;18.036;2022-10-03T07:19:12;14.35;;;10.43;;
19207;SDS011;9737;59.466;18.036;2022-10-03T07:25:24;9.63;;;7.43;;
19207;SDS011;9737;59.466;18.036;2022-10-03T07:28:05;6.60;;;5.47;;
19207;SDS011;9737;59.466;18.036;2022-10-03T07:30:54;6.82;;;5.32;;
19207;SDS011;9737;59.466;18.036;2022-10-03T07:36:42;8.93;;;5.18;;
19207;SDS011;9737;59.466;18.036;2022-10-03T07:42:44;9.95;;;5.80;;
19207;SDS011;9737;59.466;18.036;2022-10-03T07:45:32;7.63;;;5.07;;
19207;SDS011;9737;59.466;18.036;2022-10-03T07:51:23;9.85;;;6.18;;
19207;SDS011;9737;59.466;18.036;2022-10-03T07:54:06;9.35;;;6.50;;
19207;SDS011;9737;59.466;18.036;2022-10-03T07:57:15;7.35;;;5.47;;
19207;SDS011;9737;59.466;18.036;2022-10-03T08:06:16;9.40;;;7.28;;
19207;SDS011;9737;59.466;18.036;2022-10-03T08:09:05;10.10;;;6.95;;
19207;SDS011;9737;59.466;18.036;2022-10-03T08:12:04;11.10;;;6.22;;
19207;SDS011;9737;59.466;18.036;2022-10-03T08:14:56;7.55;;;5.95;;
19207;SDS011;9737;59.466;18.036;2022-10-03T08:17:38;7.60;;;6.20;;
19207;SDS011;9737;59.466;18.036;2022-10-03T08:20:32;9.02;;;5.80;;
19207;SDS011;9737;59.466;18.036;2022-10-03T08:26:19;8.85;;;5.93;;
19207;SDS011;9737;59.466;18.036;2022-10-03T08:32:10;8.32;;;5.22;;
19207;SDS011;9737;59.466;18.036;2022-10-03T08:38:03;7.00;;;5.13;;
19207;SDS011;9737;59.466;18.036;2022-10-03T08:50:16;8.10;;;5.47;;
19207;SDS011;9737;59.466;18.036;2022-10-03T08:56:06;20.70;;;6.95;;
19207;SDS011;9737;59.466;18.036;2022-10-03T09:05:21;11.35;;;7.22;;
19207;SDS011;9737;59.466;18.036;2022-10-03T09:08:19;14.55;;;7.95;;
19207;SDS011;9737;59.466;18.036;2022-10-03T09:11:28;14.52;;;7.70;;
19207;SDS011;9737;59.466;18.036;2022-10-03T09:18:07;13.38;;;7.95;;
19207;SDS011;9737;59.466;18.036;2022-10-03T09:21:13;16.30;;;8.40;;
19207;SDS011;9737;59.466;18.036;2022-10-03T09:24:10;11.75;;;8.82;;
19207;SDS011;9737;59.466;18.036;2022-10-03T09:27:14;31.73;;;8.25;;
19207;SDS011;9737;59.466;18.036;2022-10-03T09:29:56;15.45;;;7.68;;
19207;SDS011;9737;59.466;18.036;2022-10-03T09:32:47;18.33;;;8.77;;
19207;SDS011;9737;59.466;18.036;2022-10-03T09:35:56;18.63;;;9.20;;
19207;SDS011;9737;59.466;18.036;2022-10-03T09:38:47;21.63;;;8.80;;
19207;SDS011;9737;59.466;18.036;2022-10-03T09:41:49;14.85;;;8.35;;
19207;SDS011;9737;59.466;18.036;2022-10-03T09:44:43;12.20;;;8.35;;
19207;SDS011;9737;59.466;18.036;2022-10-03T09:47:35;11.73;;;7.90;;
19207;SDS011;9737;59.466;18.036;2022-10-03T09:53:33;15.43;;;9.60;;
19207;SDS011;9737;59.466;18.036;2022-10-03T09:59:27;12.65;;;9.13;;
19207;SDS011;9737;59.466;18.036;2022-10-03T10:02:16;12.45;;;9.55;;
19207;SDS011;9737;59.466;18.036;2022-10-03T10:05:20;20.98;;;10.02;;
19207;SDS011;9737;59.466;18.036;2022-10-03T10:11:19;13.43;;;9.48;;
19207;SDS011;9737;59.466;18.036;2022-10-03T10:20:26;12.43;;;9.20;;
19207;SDS011;9737;59.466;18.036;2022-10-03T10:23:23;11.13;;;8.77;;
19207;SDS011;9737;59.466;18.036;2022-10-03T10:29:28;20.38;;;10.70;;
19207;SDS011;9737;59.466;18.036;2022-10-03T10:35:47;16.77;;;11.02;;
19207;SDS011;9737;59.466;18.036;2022-10-03T10:38:47;22.05;;;11.18;;
19207;SDS011;9737;59.466;18.036;2022-10-03T10:47:52;20.60;;;11.18;;
19207;SDS011;9737;59.466;18.036;2022-10-03T10:50:54;16.13;;;9.88;;
19207;SDS011;9737;59.466;18.036;2022-10-03T11:00:21;19.88;;;12.60;;
19207;SDS011;9737;59.466;18.036;2022-10-03T11:03:28;20.00;;;11.88;;
19207;SDS011;9737;59.466;18.036;2022-10-03T11:09:40;18.02;;;12.57;;
19207;SDS011;9737;59.466;18.036;2022-10-03T11:27:56;21.90;;;13.30;;
19207;SDS011;9737;59.466;18.036;2022-10-03T11:34:10;21.77;;;12.25;;
19207;SDS011;9737;59.466;18.036;2022-10-03T11:37:03;20.23;;;13.18;;
19207;SDS011;9737;59.466;18.036;2022-10-03T11:39:41;20.48;;;12.88;;
19207;SDS011;9737;59.466;18.036;2022-10-03T11:42:22;27.95;;;13.15;;
19207;SDS011;9737;59.466;18.036;2022-10-03T11:44:58;22.38;;;13.10;;
19207;SDS011;9737;59.466;18.036;2022-10-03T11:47:38;20.33;;;13.70;;
19207;SDS011;9737;59.466;18.036;2022-10-03T11:53:18;21.05;;;13.35;;
19207;SDS011;9737;59.466;18.036;2022-10-03T11:55:57;18.95;;;12.57;;
19207;SDS011;9737;59.466;18.036;2022-10-03T11:58:54;18.55;;;12.52;;
19207;SDS011;9737;59.466;18.036;2022-10-03T12:01:36;24.23;;;14.65;;
19207;SDS011;9737;59.466;18.036;2022-10-03T12:04:19;30.02;;;15.75;;
19207;SDS011;9737;59.466;18.036;2022-10-03T12:06:59;24.98;;;15.20;;
19207;SDS011;9737;59.466;18.036;2022-10-03T12:09:56;23.92;;;14.70;;
19207;SDS011;9737;59.466;18.036;2022-10-03T12:12:32;23.58;;;14.25;;
19207;SDS011;9737;59.466;18.036;2022-10-03T12:15:18;22.33;;;14.25;;
19207;SDS011;9737;59.466;18.036;2022-10-03T12:17:56;22.40;;;14.27;;
19207;SDS011;9737;59.466;18.036;2022-10-03T12:20:34;25.65;;;15.23;;
19207;SDS011;9737;59.466;18.036;2022-10-03T12:23:21;22.35;;;14.07;;
19207;SDS011;9737;59.466;18.036;2022-10-03T12:26:00;22.13;;;14.32;;
19207;SDS011;9737;59.466;18.036;2022-10-03T12:28:31;26.15;;;14.68;;
19207;SDS011;9737;59.466;18.036;2022-10-03T12:31:05;22.77;;;13.23;;
19207;SDS011;9737;59.466;18.036;2022-10-03T12:33:46;21.38;;;14.18;;
19207;SDS011;9737;59.466;18.036;2022-10-03T12:36:19;27.17;;;15.18;;
19207;SDS011;9737;59.466;18.036;2022-10-03T12:39:00;26.80;;;15.88;;
19207;SDS011;9737;59.466;18.036;2022-10-03T12:41:51;24.50;;;16.00;;
19207;SDS011;9737;59.466;18.036;2022-10-03T12:44:33;27.90;;;16.67;;
19207;SDS011;9737;59.466;18.036;2022-10-03T12:47:20;23.02;;;15.50;;
19207;SDS011;9737;59.466;18.036;2022-10-03T12:50:16;31.83;;;16.35;;
19207;SDS011;9737;59.466;18.036;2022-10-03T12:52:58;35.28;;;16.92;;
19207;SDS011;9737;59.466;18.036;2022-10-03T12:58:48;30.60;;;17.33;;
19207;SDS011;9737;59.466;18.036;2022-10-03T13:01:25;27.40;;;16.55;;
19207;SDS011;9737;59.466;18.036;2022-10-03T13:04:02;33.53;;;18.40;;
19207;SDS011;9737;59.466;18.036;2022-10-03T13:06:40;26.98;;;16.50;;
19207;SDS011;9737;59.466;18.036;2022-10-03T13:09:34;29.42;;;16.50;;
19207;SDS011;9737;59.466;18.036;2022-10-03T13:12:27;27.08;;;15.57;;
19207;SDS011;9737;59.466;18.036;2022-10-03T13:21:05;27.77;;;17.75;;
19207;SDS011;9737;59.466;18.036;2022-10-03T13:23:59;30.13;;;18.15;;
19207;SDS011;9737;59.466;18.036;2022-10-03T13:26:37;27.33;;;17.63;;
19207;SDS011;9737;59.466;18.036;2022-10-03T13:29:25;22.90;;;15.15;;
19207;SDS011;9737;59.466;18.036;2022-10-03T13:32:07;25.92;;;14.68;;
19207;SDS011;9737;59.466;18.036;2022-10-03T13:38:04;23.15;;;15.05;;
19207;SDS011;9737;59.466;18.036;2022-10-03T13:40:42;26.65;;;13.82;;
19207;SDS011;9737;59.466;18.036;2022-10-03T13:43:16;23.17;;;14.85;;
19207;SDS011;9737;59.466;18.036;2022-10-03T13:45:51;21.85;;;14.27;;
19207;SDS011;9737;59.466;18.036;2022-10-03T13:48:23;24.13;;;14.43;;
19207;SDS011;9737;59.466;18.036;2022-10-03T13:50:56;22.10;;;14.55;;
19207;SDS011;9737;59.466;18.036;2022-10-03T13:53:39;18.85;;;13.10;;
19207;SDS011;9737;59.466;18.036;2022-10-03T13:56:21;19.98;;;13.65;;
19207;SDS011;9737;59.466;18.036;2022-10-03T13:59:02;21.10;;;13.90;;
19207;SDS011;9737;59.466;18.036;2022-10-03T14:01:43;24.95;;;13.48;;
19207;SDS011;9737;59.466;18.036;2022-10-03T14:04:25;17.10;;;11.95;;
19207;SDS011;9737;59.466;18.036;2022-10-03T14:07:11;21.85;;;11.38;;
19207;SDS011;9737;59.466;18.036;2022-10-03T14:09:57;16.42;;;10.48;;
19207;SDS011;9737;59.466;18.036;2022-10-03T14:12:39;14.55;;;10.13;;
19207;SDS011;9737;59.466;18.036;2022-10-03T14:18:21;21.20;;;9.70;;
19207;SDS011;9737;59.466;18.036;2022-10-03T14:24:15;18.20;;;7.70;;
19207;SDS011;9737;59.466;18.036;2022-10-03T14:26:58;9.02;;;6.68;;
19207;SDS011;9737;59.466;18.036;2022-10-03T14:29:36;9.68;;;7.07;;
19207;SDS011;9737;59.466;18.036;2022-10-03T14:32:14;9.43;;;5.55;;
19207;SDS011;9737;59.466;18.036;2022-10-03T14:35:12;8.50;;;5.40;;
19207;SDS011;9737;59.466;18.036;2022-10-03T14:37:52;8.63;;;5.47;;
19207;SDS011;9737;59.466;18.036;2022-10-03T14:40:29;6.57;;;5.10;;
19207;SDS011;9737;59.466;18.036;2022-10-03T14:43:13;7.72;;;4.85;;
19207;SDS011;9737;59.466;18.036;2022-10-03T14:45:57;7.70;;;5.05;;
19207;SDS011;9737;59.466;18.036;2022-10-03T14:48:28;5.40;;;4.80;;
19207;SDS011;9737;59.466;18.036;2022-10-03T14:51:06;7.85;;;5.28;;
19207;SDS011;9737;59.466;18.036;2022-10-03T14:53:44;8.45;;;5.20;;
19207;SDS011;9737;59.466;18.036;2022-10-03T14:56:15;10.85;;;5.35;;
19207;SDS011;9737;59.466;18.036;2022-10-03T14:58:47;6.50;;;4.95;;
19207;SDS011;9737;59.466;18.036;2022-10-03T15:01:18;9.07;;;5.78;;
19207;SDS011;9737;59.466;18.036;2022-10-03T15:03:53;15.13;;;6.53;;
19207;SDS011;9737;59.466;18.036;2022-10-03T15:06:32;12.43;;;6.45;;
19207;SDS011;9737;59.466;18.036;2022-10-03T15:09:04;14.00;;;6.70;;
19207;SDS011;9737;59.466;18.036;2022-10-03T15:11:46;15.73;;;7.20;;
19207;SDS011;9737;59.466;18.036;2022-10-03T15:14:18;18.27;;;6.60;;
19207;SDS011;9737;59.466;18.036;2022-10-03T15:16:50;13.00;;;7.07;;
19207;SDS011;9737;59.466;18.036;2022-10-03T15:19:23;13.85;;;7.82;;
19207;SDS011;9737;59.466;18.036;2022-10-03T15:21:55;31.67;;;7.80;;
19207;SDS011;9737;59.466;18.036;2022-10-03T15:24:30;10.68;;;7.35;;
19207;SDS011;9737;59.466;18.036;2022-10-03T15:27:05;14.23;;;7.45;;
19207;SDS011;9737;59.466;18.036;2022-10-03T15:29:39;9.98;;;7.40;;
19207;SDS011;9737;59.466;18.036;2022-10-03T15:32:16;16.50;;;7.28;;
19207;SDS011;9737;59.466;18.036;2022-10-03T15:34:49;15.85;;;8.25;;
19207;SDS011;9737;59.466;18.036;2022-10-03T15:37:23;18.40;;;8.55;;
19207;SDS011;9737;59.466;18.036;2022-10-03T15:39:59;20.92;;;8.13;;
19207;SDS011;9737;59.466;18.036;2022-10-03T15:42:42;16.48;;;7.57;;
19207;SDS011;9737;59.466;18.036;2022-10-03T15:45:17;10.65;;;7.68;;
19207;SDS011;9737;59.466;18.036;2022-10-03T15:47:48;15.75;;;8.60;;
19207;SDS011;9737;59.466;18.036;2022-10-03T15:50:18;16.88;;;7.60;;
19207;SDS011;9737;59.466;18.036;2022-10-03T15:52:51;13.90;;;8.07;;
19207;SDS011;9737;59.466;18.036;2022-10-03T15:55:46;15.02;;;7.97;;
19207;SDS011;9737;59.466;18.036;2022-10-03T15:58:19;15.10;;;7.90;;
19207;SDS011;9737;59.466;18.036;2022-10-03T16:00:53;10.73;;;7.85;;
19207;SDS011;9737;59.466;18.036;2022-10-03T16:03:30;11.20;;;7.78;;
19207;SDS011;9737;59.466;18.036;2022-10-03T16:06:07;15.77;;;8.02;;
19207;SDS011;9737;59.466;18.036;2022-10-03T16:08:42;17.48;;;9.20;;
19207;SDS011;9737;59.466;18.036;2022-10-03T16:11:26;18.38;;;7.85;;
19207;SDS011;9737;59.466;18.036;2022-10-03T16:14:09;16.52;;;8.40;;
19207;SDS011;9737;59.466;18.036;2022-10-03T16:16:44;12.48;;;7.25;;
19207;SDS011;9737;59.466;18.036;2022-10-03T16:19:28;12.50;;;7.78;;
19207;SDS011;9737;59.466;18.036;2022-10-03T16:22:06;18.05;;;8.65;;
19207;SDS011;9737;59.466;18.036;2022-10-03T16:24:43;13.80;;;8.50;;
19207;SDS011;9737;59.466;18.036;2022-10-03T16:27:17;14.15;;;8.23;;
19207;SDS011;9737;59.466;18.036;2022-10-03T16:29:55;17.05;;;8.80;;
19207;SDS011;9737;59.466;18.036;2022-10-03T16:32:28;14.23;;;8.55;;
19207;SDS011;9737;59.466;18.036;2022-10-03T16:34:59;15.93;;;9.10;;
19207;SDS011;9737;59.466;18.036;2022-10-03T16:37:29;10.98;;;8.02;;
19207;SDS011;9737;59.466;18.036;2022-10-03T16:39:59;19.83;;;9.57;;
19207;SDS011;9737;59.466;18.036;2022-10-03T16:42:35;16.20;;;9.27;;
19207;SDS011;9737;59.466;18.036;2022-10-03T16:45:17;23.20;;;10.90;;
19207;SDS011;9737;59.466;18.036;2022-10-03T16:47:50;19.65;;;11.07;;
19207;SDS011;9737;59.466;18.036;2022-10-03T16:50:35;20.25;;;9.65;;
19207;SDS011;9737;59.466;18.036;2022-10-03T16:53:09;16.65;;;9.38;;
19207;SDS011;9737;59.466;18.036;2022-10-03T16:55:42;14.63;;;9.18;;
19207;SDS011;9737;59.466;18.036;2022-10-03T16:58:18;17.05;;;10.45;;
19207;SDS011;9737;59.466;18.036;2022-10-03T17:00:53;19.52;;;10.20;;
19207;SDS011;9737;59.466;18.036;2022-10-03T17:03:47;16.92;;;10.32;;
19207;SDS011;9737;59.466;18.036;2022-10-03T17:06:22;13.63;;;9.20;;
19207;SDS011;9737;59.466;18.036;2022-10-03T17:08:57;17.65;;;9.52;;
19207;SDS011;9737;59.466;18.036;2022-10-03T17:11:29;14.98;;;9.27;;
19207;SDS011;9737;59.466;18.036;2022-10-03T17:14:04;11.95;;;8.45;;
19207;SDS011;9737;59.466;18.036;2022-10-03T17:16:36;13.70;;;8.88;;
19207;SDS011;9737;59.466;18.036;2022-10-03T17:19:15;18.05;;;10.18;;
19207;SDS011;9737;59.466;18.036;2022-10-03T17:21:49;17.50;;;11.40;;
19207;SDS011;9737;59.466;18.036;2022-10-03T17:24:32;18.00;;;11.30;;
19207;SDS011;9737;59.466;18.036;2022-10-03T17:27:08;21.50;;;10.75;;
19207;SDS011;9737;59.466;18.036;2022-10-03T17:29:45;17.17;;;10.15;;
19207;SDS011;9737;59.466;18.036;2022-10-03T17:32:21;21.63;;;9.88;;
19207;SDS011;9737;59.466;18.036;2022-10-03T17:34:53;13.82;;;8.88;;
19207;SDS011;9737;59.466;18.036;2022-10-03T17:37:35;13.85;;;8.68;;
19207;SDS011;9737;59.466;18.036;2022-10-03T17:40:55;22.02;;;8.60;;
19207;SDS011;9737;59.466;18.036;2022-10-03T17:43:38;15.35;;;8.18;;
19207;SDS011;9737;59.466;18.036;2022-10-03T17:46:14;24.05;;;8.52;;
19207;SDS011;9737;59.466;18.036;2022-10-03T17:48:52;13.10;;;8.40;;
19207;SDS011;9737;59.466;18.036;2022-10-03T17:51:30;16.83;;;9.35;;
19207;SDS011;9737;59.466;18.036;2022-10-03T17:54:08;29.52;;;9.93;;
19207;SDS011;9737;59.466;18.036;2022-10-03T17:56:49;12.32;;;8.40;;
19207;SDS011;9737;59.466;18.036;2022-10-03T17:59:22;15.85;;;9.00;;
19207;SDS011;9737;59.466;18.036;2022-10-03T18:01:55;30.52;;;10.00;;
19207;SDS011;9737;59.466;18.036;2022-10-03T18:04:29;15.18;;;9.40;;
19207;SDS011;9737;59.466;18.036;2022-10-03T18:07:03;21.33;;;11.30;;
19207;SDS011;9737;59.466;18.036;2022-10-03T18:09:36;23.25;;;10.40;;
19207;SDS011;9737;59.466;18.036;2022-10-03T18:12:11;32.22;;;14.48;;
19207;SDS011;9737;59.466;18.036;2022-10-03T18:14:49;40.45;;;16.65;;
19207;SDS011;9737;59.466;18.036;2022-10-03T18:17:47;47.15;;;17.58;;
19207;SDS011;9737;59.466;18.036;2022-10-03T18:20:41;37.75;;;16.75;;
19207;SDS011;9737;59.466;18.036;2022-10-03T18:23:17;32.42;;;14.88;;
19207;SDS011;9737;59.466;18.036;2022-10-03T18:26:19;33.55;;;15.25;;
19207;SDS011;9737;59.466;18.036;2022-10-03T18:28:54;32.47;;;15.90;;
19207;SDS011;9737;59.466;18.036;2022-10-03T18:31:36;22.33;;;12.23;;
19207;SDS011;9737;59.466;18.036;2022-10-03T18:34:13;20.90;;;12.52;;
19207;SDS011;9737;59.466;18.036;2022-10-03T18:36:47;20.77;;;12.68;;
19207;SDS011;9737;59.466;18.036;2022-10-03T18:39:20;25.83;;;14.88;;
19207;SDS011;9737;59.466;18.036;2022-10-03T18:41:56;31.23;;;16.13;;
19207;SDS011;9737;59.466;18.036;2022-10-03T18:44:27;26.23;;;14.32;;
19207;SDS011;9737;59.466;18.036;2022-10-03T18:47:00;24.02;;;13.95;;
19207;SDS011;9737;59.466;18.036;2022-10-03T18:49:33;26.63;;;14.23;;
19207;SDS011;9737;59.466;18.036;2022-10-03T18:52:10;24.35;;;14.40;;
19207;SDS011;9737;59.466;18.036;2022-10-03T18:54:45;38.50;;;17.27;;
19207;SDS011;9737;59.466;18.036;2022-10-03T18:57:23;37.83;;;17.30;;
19207;SDS011;9737;59.466;18.036;2022-10-03T18:59:59;29.75;;;15.85;;
19207;SDS011;9737;59.466;18.036;2022-10-03T19:02:33;23.67;;;14.68;;
19207;SDS011;9737;59.466;18.036;2022-10-03T19:05:07;24.23;;;13.73;;